createdAt,value
2019-05-23T00:00:50.786Z,50.97
2019-05-23T00:03:25.251Z,45.33
2019-05-23T00:05:53.878Z,46.17
2019-05-23T00:08:22.925Z,45.43
2019-05-23T00:11:03.410Z,47.87
2019-05-23T00:13:42.994Z,49.43
2019-05-23T00:16:09.612Z,46.60
2019-05-23T00:18:37.032Z,49.93
2019-05-23T00:21:04.905Z,50.47
2019-05-23T00:23:32.971Z,49.30
2019-05-23T00:26:00.137Z,43.43
2019-05-23T00:28:27.722Z,43.97
2019-05-23T00:30:56.802Z,41.93
2019-05-23T00:33:30.854Z,44.80
2019-05-23T00:35:58.956Z,43.93
2019-05-23T00:38:26.230Z,44.73
2019-05-23T00:40:53.154Z,44.83
2019-05-23T00:43:20.991Z,44.37
2019-05-23T00:45:48.759Z,44.77
2019-05-23T00:48:17.451Z,43.53
2019-05-23T00:50:45.568Z,45.33
2019-05-23T00:53:12.894Z,43.53
2019-05-23T00:55:40.421Z,46.63
2019-05-23T00:58:07.633Z,46.63
2019-05-23T01:00:34.606Z,49.43
2019-05-23T01:03:02.472Z,49.97
2019-05-23T01:05:29.061Z,60.60
2019-05-23T01:07:57.681Z,54.30
2019-05-23T01:10:26.242Z,55.43
2019-05-23T01:12:53.348Z,58.20
2019-05-23T01:15:22.205Z,58.20
2019-05-23T01:17:49.598Z,56.13
2019-05-23T01:20:20.163Z,53.60
2019-05-23T01:22:50.019Z,60.13
2019-05-23T01:25:19.078Z,57.63
2019-05-23T01:27:45.892Z,57.97
2019-05-23T01:30:15.183Z,56.53
2019-05-23T01:32:43.724Z,57.00
2019-05-23T01:35:10.776Z,49.53
2019-05-23T01:37:37.862Z,56.23
2019-05-23T01:40:07.313Z,47.07
2019-05-23T01:42:34.734Z,49.70
2019-05-23T01:45:02.153Z,48.67
2019-05-23T01:47:29.378Z,46.50
2019-05-23T01:49:56.653Z,42.97
2019-05-23T01:52:23.940Z,45.43
2019-05-23T01:54:50.433Z,42.07
2019-05-23T01:57:18.039Z,41.60
2019-05-23T01:59:44.961Z,42.23
2019-05-23T02:02:13.385Z,44.77
2019-05-23T02:04:40.599Z,44.90
2019-05-23T02:07:09.500Z,43.07
2019-05-23T02:09:36.638Z,44.83
2019-05-23T02:12:07.957Z,39.57
2019-05-23T02:14:38.147Z,39.30
2019-05-23T02:17:07.197Z,41.57
2019-05-23T02:19:33.759Z,46.37
2019-05-23T02:22:01.074Z,41.20
2019-05-23T02:24:27.729Z,39.60
2019-05-23T02:26:55.813Z,39.87
2019-05-23T02:29:23.174Z,43.27
2019-05-23T02:31:50.279Z,43.37
2019-05-23T02:34:17.596Z,44.00
2019-05-23T02:36:46.008Z,47.33
2019-05-23T02:39:31.011Z,46.73
2019-05-23T02:41:59.953Z,47.53
2019-05-23T02:44:29.590Z,46.07
2019-05-23T02:47:04.205Z,42.93
2019-05-23T02:49:32.827Z,45.33
2019-05-23T02:52:07.973Z,43.10
2019-05-23T02:54:37.467Z,47.87
2019-05-23T02:57:07.373Z,38.83
2019-05-23T02:59:47.852Z,39.43
2019-05-23T03:02:34.929Z,39.53
2019-05-23T03:05:06.294Z,37.90
2019-05-23T03:07:35.632Z,40.47
2019-05-23T03:10:05.733Z,35.73
2019-05-23T03:12:35.031Z,35.33
2019-05-23T03:15:08.243Z,32.17
2019-05-23T03:17:41.060Z,37.50
2019-05-23T03:20:09.833Z,34.23
2019-05-23T03:23:01.207Z,38.17
2019-05-23T03:25:35.225Z,36.13
2019-05-23T03:28:03.101Z,36.40
2019-05-23T03:30:31.577Z,32.07
2019-05-23T03:33:00.067Z,36.27
2019-05-23T03:35:28.773Z,34.27
2019-05-23T03:37:56.135Z,31.43
2019-05-23T03:40:24.910Z,32.20
2019-05-23T03:42:57.135Z,32.43
2019-05-23T03:45:25.812Z,27.67
2019-05-23T03:47:54.092Z,26.83
2019-05-23T03:50:20.638Z,28.17
2019-05-23T03:52:49.156Z,29.30
2019-05-23T03:55:18.544Z,27.07
2019-05-23T03:57:48.878Z,27.67
2019-05-23T04:00:17.389Z,25.03
2019-05-23T04:02:45.860Z,23.70
2019-05-23T04:05:14.788Z,22.10
2019-05-23T04:07:42.215Z,22.20
2019-05-23T04:10:09.571Z,25.13
2019-05-23T04:12:36.419Z,25.67
2019-05-23T04:15:04.897Z,24.57
2019-05-23T04:17:32.381Z,26.57
2019-05-23T04:19:59.754Z,27.63
2019-05-23T04:22:26.712Z,25.20
2019-05-23T04:24:53.491Z,20.50
2019-05-23T04:27:20.269Z,24.40
2019-05-23T04:29:47.003Z,21.60
2019-05-23T04:32:14.409Z,24.53
2019-05-23T04:34:41.058Z,19.37
2019-05-23T04:37:07.705Z,24.37
2019-05-23T04:39:35.028Z,21.60
2019-05-23T04:42:03.371Z,16.30
2019-05-23T04:44:30.478Z,16.40
2019-05-23T04:46:57.557Z,13.90
2019-05-23T04:49:24.109Z,14.07
2019-05-23T04:51:50.822Z,14.63
2019-05-23T04:54:17.562Z,13.03
2019-05-23T04:56:45.020Z,10.53
2019-05-23T04:59:12.436Z,12.17
2019-05-23T05:01:40.201Z,13.00
2019-05-23T05:04:07.508Z,13.67
2019-05-23T05:06:34.503Z,14.87
2019-05-23T05:09:02.396Z,13.77
2019-05-23T05:11:31.216Z,13.20
2019-05-23T05:13:59.301Z,13.20
2019-05-23T05:16:26.240Z,11.20
2019-05-23T05:18:55.325Z,14.43
2019-05-23T05:21:23.062Z,11.50
2019-05-23T05:23:50.402Z,11.40
2019-05-23T05:26:22.142Z,11.83
2019-05-23T05:28:49.454Z,10.30
2019-05-23T05:31:16.329Z,12.97
2019-05-23T05:33:46.492Z,10.87
2019-05-23T05:36:13.276Z,8.77
2019-05-23T05:38:40.178Z,12.13
2019-05-23T05:41:07.896Z,12.70
2019-05-23T05:43:36.375Z,13.33
2019-05-23T05:46:04.667Z,12.17
2019-05-23T05:48:31.668Z,12.63
2019-05-23T05:50:58.542Z,11.73
2019-05-23T05:53:25.587Z,16.83
2019-05-23T05:55:52.258Z,12.47
2019-05-23T05:58:19.008Z,17.83
2019-05-23T06:00:50.047Z,13.30
2019-05-23T06:03:16.726Z,12.60
2019-05-23T06:05:53.109Z,14.73
2019-05-23T06:08:21.773Z,13.17
2019-05-23T06:10:48.807Z,14.07
2019-05-23T06:13:16.106Z,13.30
2019-05-23T06:15:47.264Z,13.23
2019-05-23T06:18:14.299Z,14.67
2019-05-23T06:20:45.022Z,16.13
2019-05-23T06:23:12.321Z,13.57
2019-05-23T06:25:49.907Z,13.17
2019-05-23T06:28:23.411Z,13.97
2019-05-23T06:30:51.561Z,10.97
2019-05-23T06:33:23.621Z,13.77
2019-05-23T06:35:49.237Z,12.17
2019-05-23T06:38:16.180Z,9.50
2019-05-23T06:40:45.475Z,12.23
2019-05-23T06:43:12.934Z,15.93
2019-05-23T06:45:41.538Z,12.27
2019-05-23T06:48:09.896Z,14.13
2019-05-23T06:50:36.503Z,12.97
2019-05-23T06:53:05.068Z,11.77
2019-05-23T06:55:32.100Z,12.13
2019-05-23T06:57:59.335Z,15.30
2019-05-23T07:00:28.003Z,15.83
2019-05-23T07:02:54.701Z,12.83
2019-05-23T07:05:25.775Z,15.20
2019-05-23T07:07:54.118Z,20.57
2019-05-23T07:10:22.644Z,16.07
2019-05-23T07:12:49.997Z,19.40
2019-05-23T07:15:18.013Z,17.93
2019-05-23T07:17:45.141Z,16.27
2019-05-23T07:20:15.561Z,15.87
2019-05-23T07:22:42.304Z,16.50
2019-05-23T07:25:09.299Z,14.73
2019-05-23T07:27:39.532Z,16.70
2019-05-23T07:30:21.726Z,12.93
2019-05-23T07:32:48.775Z,13.87
2019-05-23T07:35:15.478Z,17.03
2019-05-23T07:37:42.279Z,17.07
2019-05-23T07:40:08.998Z,16.67
2019-05-23T07:42:35.566Z,15.63
2019-05-23T07:45:05.816Z,20.63
2019-05-23T07:47:32.852Z,14.60
2019-05-23T07:49:59.366Z,17.37
2019-05-23T07:52:25.960Z,17.97
2019-05-23T07:54:54.895Z,21.70
2019-05-23T07:57:23.033Z,20.23
2019-05-23T07:59:53.003Z,20.90
2019-05-23T08:02:26.360Z,20.60
2019-05-23T08:04:53.395Z,21.17
2019-05-23T08:07:21.178Z,23.73
2019-05-23T08:09:47.804Z,26.03
2019-05-23T08:12:14.762Z,24.30
2019-05-23T08:14:41.632Z,22.40
2019-05-23T08:17:09.523Z,23.80
2019-05-23T08:19:49.117Z,24.73
2019-05-23T08:22:08.474Z,26.50
2019-05-23T08:24:35.715Z,21.17
2019-05-23T08:27:03.034Z,21.17
2019-05-23T08:29:31.683Z,20.37
2019-05-23T08:31:59.026Z,24.03
2019-05-23T08:34:40.573Z,20.30
2019-05-23T08:36:55.815Z,22.13
2019-05-23T08:39:29.207Z,17.23
2019-05-23T08:41:56.276Z,22.80
2019-05-23T08:44:23.620Z,24.97
2019-05-23T08:46:50.330Z,18.63
2019-05-23T08:49:18.066Z,23.03
2019-05-23T08:51:44.846Z,18.17
2019-05-23T08:54:11.478Z,22.83
2019-05-23T08:56:38.096Z,19.03
2019-05-23T08:59:06.284Z,21.97
2019-05-23T09:01:32.934Z,17.77
2019-05-23T09:04:03.103Z,14.80
2019-05-23T09:06:30.424Z,18.70
2019-05-23T09:08:57.236Z,27.37
2019-05-23T09:11:24.046Z,47.37
2019-05-23T09:13:51.445Z,53.33
2019-05-23T09:16:19.149Z,21.23
2019-05-23T09:18:45.831Z,25.83
2019-05-23T09:21:12.857Z,41.47
2019-05-23T09:23:40.171Z,34.73
2019-05-23T09:26:06.858Z,21.27
2019-05-23T09:28:34.336Z,22.23
2019-05-23T09:31:01.495Z,17.03
2019-05-23T09:33:28.370Z,18.07
2019-05-23T09:35:55.456Z,18.33
2019-05-23T09:38:24.194Z,19.37
2019-05-23T09:40:51.177Z,17.03
2019-05-23T09:43:18.192Z,17.57
2019-05-23T09:45:45.199Z,15.33
2019-05-23T09:48:14.073Z,13.03
2019-05-23T09:50:43.151Z,22.53
2019-05-23T09:53:09.869Z,17.83
2019-05-23T09:55:36.820Z,16.60
2019-05-23T09:58:03.964Z,15.80
2019-05-23T10:00:32.678Z,19.70
2019-05-23T10:03:00.743Z,16.33
2019-05-23T10:05:42.046Z,20.67
2019-05-23T10:07:56.234Z,14.87
2019-05-23T10:10:23.551Z,21.40
2019-05-23T10:12:50.169Z,16.63
2019-05-23T10:15:28.863Z,18.40
2019-05-23T10:17:55.468Z,19.03
2019-05-23T10:20:25.854Z,16.60
2019-05-23T10:22:52.620Z,31.83
2019-05-23T10:25:19.072Z,21.47
2019-05-23T10:27:45.691Z,17.10
2019-05-23T10:30:14.720Z,19.47
2019-05-23T10:32:41.283Z,16.67
2019-05-23T10:35:09.054Z,15.23
2019-05-23T10:37:35.851Z,17.27
2019-05-23T10:40:03.580Z,14.87
2019-05-23T10:42:30.547Z,17.70
2019-05-23T10:44:57.082Z,15.63
2019-05-23T10:47:24.298Z,17.10
2019-05-23T10:49:51.686Z,14.00
2019-05-23T10:52:19.548Z,13.00
2019-05-23T10:54:46.159Z,14.30
2019-05-23T10:57:12.952Z,14.13
2019-05-23T10:59:39.696Z,12.00
2019-05-23T11:02:08.627Z,16.17
2019-05-23T11:04:35.987Z,17.47
2019-05-23T11:07:03.395Z,12.47
2019-05-23T11:09:37.869Z,13.60
2019-05-23T11:11:59.237Z,13.63
2019-05-23T11:14:25.782Z,9.80
2019-05-23T11:16:52.837Z,10.90
2019-05-23T11:19:20.051Z,9.13
2019-05-23T11:21:46.594Z,12.10
2019-05-23T11:24:13.738Z,11.90
2019-05-23T11:26:41.161Z,11.60
2019-05-23T11:29:08.333Z,11.17
2019-05-23T11:31:35.075Z,7.50
2019-05-23T11:34:01.839Z,10.20
2019-05-23T11:36:35.698Z,7.83
2019-05-23T11:38:57.720Z,9.77
2019-05-23T11:41:24.419Z,11.97
2019-05-23T11:43:50.894Z,10.30
2019-05-23T11:46:28.413Z,8.33
2019-05-23T11:48:54.953Z,9.33
2019-05-23T11:51:25.106Z,10.33
2019-05-23T11:54:06.559Z,9.63
2019-05-23T11:56:18.806Z,11.53
2019-05-23T11:58:45.372Z,14.07
2019-05-23T12:01:20.474Z,8.98
2019-05-23T12:03:44.466Z,10.57
2019-05-23T12:06:11.967Z,8.70
2019-05-23T12:08:38.884Z,9.33
2019-05-23T12:11:07.551Z,11.27
2019-05-23T12:13:34.128Z,8.10
2019-05-23T12:16:00.997Z,10.37
2019-05-23T12:18:28.050Z,16.00
2019-05-23T12:20:59.440Z,8.77
2019-05-23T12:23:24.401Z,10.27
2019-05-23T12:25:51.194Z,9.93
2019-05-23T12:28:17.747Z,9.57
2019-05-23T12:30:44.494Z,14.97
2019-05-23T12:33:11.191Z,12.13
2019-05-23T12:35:37.714Z,10.73
2019-05-23T12:38:04.457Z,11.53
2019-05-23T12:40:31.178Z,8.33
2019-05-23T12:42:57.678Z,9.33
2019-05-23T12:45:24.438Z,9.00
2019-05-23T12:47:55.701Z,9.37
2019-05-23T12:50:30.793Z,11.20
2019-05-23T12:52:57.193Z,9.80
2019-05-23T12:55:23.805Z,8.53
2019-05-23T12:57:50.356Z,10.50
2019-05-23T13:00:19.261Z,17.53
2019-05-23T13:02:45.867Z,6.90
2019-05-23T13:05:13.443Z,11.97
2019-05-23T13:07:40.160Z,11.70
2019-05-23T13:10:07.871Z,8.87
2019-05-23T13:12:34.542Z,12.10
2019-05-23T13:15:01.046Z,9.40
2019-05-23T13:17:27.648Z,8.50
2019-05-23T13:19:54.231Z,11.37
2019-05-23T13:22:21.426Z,8.97
2019-05-23T13:24:52.737Z,8.70
2019-05-23T13:27:16.401Z,7.20
2019-05-23T13:29:43.048Z,8.90
2019-05-23T13:32:09.715Z,10.27
2019-05-23T13:34:36.239Z,6.23
2019-05-23T13:37:03.196Z,9.40
2019-05-23T13:39:29.714Z,9.33
2019-05-23T13:41:56.398Z,7.93
2019-05-23T13:44:33.925Z,6.53
2019-05-23T13:46:51.431Z,8.50
2019-05-23T13:49:18.394Z,11.27
2019-05-23T13:51:45.748Z,7.37
2019-05-23T13:54:12.315Z,7.47
2019-05-23T13:56:39.006Z,7.23
2019-05-23T13:59:05.931Z,9.83
2019-05-23T14:01:33.152Z,12.07
2019-05-23T14:04:00.193Z,6.72
2019-05-23T14:06:27.107Z,7.12
2019-05-23T14:08:53.643Z,6.70
2019-05-23T14:11:20.639Z,8.83
2019-05-23T14:13:47.857Z,8.23
2019-05-23T14:16:15.793Z,8.63
2019-05-23T14:18:44.232Z,7.90
2019-05-23T14:21:11.382Z,5.83
2019-05-23T14:23:38.013Z,8.93
2019-05-23T14:26:05.498Z,7.17
2019-05-23T14:28:32.758Z,10.40
2019-05-23T14:31:07.914Z,4.70
2019-05-23T14:33:36.503Z,10.77
2019-05-23T14:36:16.938Z,6.13
2019-05-23T14:38:44.099Z,5.50
2019-05-23T14:41:12.003Z,5.43
2019-05-23T14:43:38.396Z,3.98
2019-05-23T14:46:09.478Z,5.72
2019-05-23T14:48:38.289Z,3.67
2019-05-23T14:51:15.742Z,11.37
2019-05-23T14:53:59.282Z,4.77
2019-05-23T14:56:28.751Z,4.40
2019-05-23T14:58:56.381Z,9.70
2019-05-23T15:01:24.942Z,6.10
2019-05-23T15:03:51.580Z,9.90
2019-05-23T15:06:18.503Z,5.20
2019-05-23T15:08:51.221Z,4.80
2019-05-23T15:11:15.177Z,10.37
2019-05-23T15:13:41.545Z,5.53
2019-05-23T15:16:09.515Z,6.00
2019-05-23T15:18:36.544Z,6.80
2019-05-23T15:21:03.570Z,7.77
2019-05-23T15:23:30.210Z,5.13
2019-05-23T15:25:57.114Z,7.70
2019-05-23T15:28:23.647Z,7.35
2019-05-23T15:30:50.583Z,4.27
2019-05-23T15:33:17.745Z,6.33
2019-05-23T15:35:44.974Z,5.70
2019-05-23T15:38:11.506Z,3.80
2019-05-23T15:40:38.053Z,4.33
2019-05-23T15:43:04.665Z,6.83
2019-05-23T15:45:31.996Z,6.37
2019-05-23T15:47:58.881Z,4.60
2019-05-23T15:50:27.760Z,5.00
2019-05-23T15:52:59.287Z,4.17
2019-05-23T15:55:33.613Z,8.17
2019-05-23T15:58:10.923Z,6.03
2019-05-23T16:00:42.247Z,6.23
2019-05-23T16:03:13.715Z,4.67
2019-05-23T16:05:39.931Z,4.90
2019-05-23T16:08:07.083Z,5.77
2019-05-23T16:10:34.114Z,5.53
2019-05-23T16:13:01.127Z,6.17
2019-05-23T16:15:28.378Z,5.70
2019-05-23T16:17:55.786Z,4.07
2019-05-23T16:20:23.512Z,4.53
2019-05-23T16:22:50.841Z,6.17
2019-05-23T16:25:17.514Z,3.63
2019-05-23T16:27:44.123Z,3.77
2019-05-23T16:30:10.905Z,4.63
2019-05-23T16:32:37.621Z,3.20
2019-05-23T16:35:04.895Z,6.17
2019-05-23T16:37:31.507Z,3.20
2019-05-23T16:39:57.934Z,6.37
2019-05-23T16:42:24.574Z,7.50
2019-05-23T16:44:51.490Z,3.33
2019-05-23T16:47:18.895Z,5.57
2019-05-23T16:49:45.804Z,4.60
2019-05-23T16:52:12.381Z,7.10
2019-05-23T16:54:40.800Z,7.77
2019-05-23T16:57:09.315Z,5.33
2019-05-23T16:59:37.673Z,4.67
2019-05-23T17:02:12.247Z,5.03
2019-05-23T17:04:43.299Z,4.43
2019-05-23T17:07:15.164Z,4.23
2019-05-23T17:10:04.222Z,4.70
2019-05-23T17:12:16.949Z,3.90
2019-05-23T17:14:51.740Z,4.20
2019-05-23T17:17:36.430Z,6.30
2019-05-23T17:19:54.815Z,4.33
2019-05-23T17:22:29.208Z,4.67
2019-05-23T17:25:14.365Z,3.30
2019-05-23T17:27:45.682Z,3.97
2019-05-23T17:30:31.052Z,3.13
2019-05-23T17:32:59.228Z,4.47
2019-05-23T17:35:25.939Z,3.93
2019-05-23T17:37:52.593Z,3.40
2019-05-23T17:40:24.782Z,3.97
2019-05-23T17:42:47.618Z,4.90
2019-05-23T17:45:14.367Z,3.60
2019-05-23T17:47:44.225Z,3.70
2019-05-23T17:50:10.875Z,6.40
2019-05-23T17:52:37.979Z,6.57
2019-05-23T17:55:05.842Z,3.80
2019-05-23T17:57:33.035Z,2.93
2019-05-23T18:00:00.262Z,3.03
2019-05-23T18:02:27.401Z,4.33
2019-05-23T18:04:54.241Z,7.30
2019-05-23T18:07:21.123Z,6.03
2019-05-23T18:09:48.659Z,4.27
2019-05-23T18:12:15.584Z,7.37
2019-05-23T18:14:42.597Z,6.67
2019-05-23T18:17:09.383Z,5.03
2019-05-23T18:19:36.915Z,6.07
2019-05-23T18:22:06.025Z,5.27
2019-05-23T18:24:33.793Z,14.00
2019-05-23T18:27:01.154Z,8.47
2019-05-23T18:29:28.453Z,5.20
2019-05-23T18:31:56.314Z,7.40
2019-05-23T18:34:23.590Z,4.27
2019-05-23T18:36:50.144Z,4.87
2019-05-23T18:39:18.773Z,10.27
2019-05-23T18:41:45.346Z,5.13
2019-05-23T18:44:13.053Z,5.97
2019-05-23T18:46:41.572Z,4.90
2019-05-23T18:49:09.521Z,6.33
2019-05-23T18:51:36.286Z,5.93
2019-05-23T18:54:03.780Z,3.90
2019-05-23T18:56:31.028Z,5.43
2019-05-23T18:58:57.849Z,7.83
2019-05-23T19:01:25.871Z,5.70
2019-05-23T19:03:52.943Z,4.40
2019-05-23T19:06:20.253Z,4.57
2019-05-23T19:08:47.569Z,5.57
2019-05-23T19:11:20.679Z,5.87
2019-05-23T19:13:43.359Z,6.50
2019-05-23T19:16:10.666Z,4.90
2019-05-23T19:18:37.890Z,6.63
2019-05-23T19:21:05.707Z,9.00
2019-05-23T19:23:33.543Z,8.67
2019-05-23T19:26:00.459Z,9.07
2019-05-23T19:28:27.830Z,5.90
2019-05-23T19:30:54.855Z,6.10
2019-05-23T19:33:22.987Z,5.07
2019-05-23T19:35:49.579Z,5.13
2019-05-23T19:38:16.494Z,5.70
2019-05-23T19:40:44.679Z,71.53
2019-05-23T19:43:12.551Z,10.27
2019-05-23T19:45:39.942Z,5.07
2019-05-23T19:48:07.092Z,6.27
2019-05-23T19:50:35.169Z,5.80
2019-05-23T19:53:01.698Z,8.83
2019-05-23T19:55:28.452Z,4.30
2019-05-23T19:57:56.330Z,5.97
2019-05-23T20:00:23.564Z,6.70
2019-05-23T20:02:54.711Z,6.27
2019-05-23T20:05:26.258Z,6.47
2019-05-23T20:07:52.894Z,5.73
2019-05-23T20:10:21.652Z,7.40
2019-05-23T20:12:48.594Z,5.87
2019-05-23T20:15:15.328Z,4.67
2019-05-23T20:17:42.341Z,6.90
2019-05-23T20:20:09.770Z,8.63
2019-05-23T20:22:36.277Z,9.30
2019-05-23T20:25:04.944Z,23.13
2019-05-23T20:27:31.618Z,16.87
2019-05-23T20:29:58.252Z,5.57
2019-05-23T20:32:25.366Z,6.80
2019-05-23T20:34:52.861Z,8.20
2019-05-23T20:37:20.046Z,6.10
2019-05-23T20:39:47.063Z,7.27
2019-05-23T20:42:13.725Z,7.40
2019-05-23T20:44:41.947Z,5.87
2019-05-23T20:47:09.107Z,9.03
2019-05-23T20:49:35.940Z,7.93
2019-05-23T20:52:02.683Z,6.27
2019-05-23T20:54:32.793Z,5.03
2019-05-23T20:56:57.821Z,9.07
2019-05-23T20:59:25.053Z,6.70
2019-05-23T21:01:52.130Z,20.80
2019-05-23T21:04:18.816Z,9.20
2019-05-23T21:06:45.499Z,5.57
2019-05-23T21:09:15.561Z,5.80
2019-05-23T21:11:40.745Z,7.23
2019-05-23T21:14:07.371Z,8.30
2019-05-23T21:16:34.028Z,6.30
2019-05-23T21:19:02.706Z,7.67
2019-05-23T21:21:32.969Z,8.60
2019-05-23T21:24:00.414Z,9.47
2019-05-23T21:26:27.051Z,7.37
2019-05-23T21:28:53.690Z,6.40
2019-05-23T21:31:22.164Z,6.87
2019-05-23T21:33:48.853Z,8.10
2019-05-23T21:36:15.473Z,5.10
2019-05-23T21:38:42.029Z,7.17
2019-05-23T21:41:09.216Z,7.73
2019-05-23T21:43:35.889Z,6.83
2019-05-23T21:46:03.916Z,5.10
2019-05-23T21:48:30.624Z,6.40
2019-05-23T21:50:57.242Z,4.97
2019-05-23T21:53:23.873Z,7.57
2019-05-23T21:55:50.462Z,5.73
2019-05-23T21:58:17.284Z,6.87
2019-05-23T22:01:07.799Z,5.77
2019-05-23T22:03:53.389Z,7.23
2019-05-23T22:06:30.581Z,8.10
2019-05-23T22:08:57.389Z,6.80
2019-05-23T22:11:25.066Z,8.43
2019-05-23T22:13:52.006Z,6.80
2019-05-23T22:16:18.629Z,6.87
2019-05-23T22:18:45.384Z,7.13
2019-05-23T22:21:13.068Z,8.63
2019-05-23T22:23:40.071Z,7.83
2019-05-23T22:26:07.135Z,6.20
2019-05-23T22:28:34.044Z,8.93
2019-05-23T22:31:00.978Z,8.60
2019-05-23T22:33:29.413Z,9.03
2019-05-23T22:35:56.594Z,7.37
2019-05-23T22:38:23.274Z,8.73
2019-05-23T22:40:49.897Z,8.40
2019-05-23T22:43:20.989Z,9.47
2019-05-23T22:45:45.524Z,8.77
2019-05-23T22:48:12.186Z,6.97
2019-05-23T22:50:38.724Z,8.83
2019-05-23T22:53:05.329Z,7.17
2019-05-23T22:55:31.973Z,9.30
2019-05-23T22:57:58.578Z,7.30
2019-05-23T23:00:27.076Z,8.70
2019-05-23T23:03:05.492Z,8.87
2019-05-23T23:05:32.310Z,10.07
2019-05-23T23:07:58.907Z,10.10
2019-05-23T23:10:25.409Z,7.87
2019-05-23T23:12:52.138Z,8.27
2019-05-23T23:15:19.400Z,10.00
2019-05-23T23:17:46.696Z,8.87
2019-05-23T23:20:13.478Z,10.03
2019-05-23T23:22:40.599Z,9.07
2019-05-23T23:25:07.243Z,8.53
2019-05-23T23:27:34.040Z,9.90
2019-05-23T23:30:00.653Z,11.93
2019-05-23T23:32:27.245Z,7.50
2019-05-23T23:34:53.840Z,9.30
2019-05-23T23:37:20.375Z,8.97
2019-05-23T23:39:47.121Z,7.37
2019-05-23T23:42:13.909Z,8.60
2019-05-23T23:44:59.001Z,7.57
2019-05-23T23:47:44.093Z,8.43
2019-05-23T23:50:29.100Z,9.77
2019-05-23T23:53:14.643Z,8.33
2019-05-23T23:55:59.440Z,10.93
2019-05-23T23:58:44.578Z,13.00
